sensor_id;sensor_type;location;lat;lon;timestamp;pressure;altitude;pressure_sealevel;temperature;humidity
26865;BME280;40618;51.166;10.322;2023-04-27T00:01:14;97643.19;;;3.76;59.42
26865;BME280;40618;51.166;10.322;2023-04-27T00:03:40;97644.91;;;3.77;59.14
26865;BME280;40618;51.166;10.322;2023-04-27T00:06:09;97641.50;;;3.75;59.47
26865;BME280;40618;51.166;10.322;2023-04-27T00:08:35;97636.38;;;3.71;59.52
26865;BME280;40618;51.166;10.322;2023-04-27T00:11:00;97643.19;;;3.72;59.24
26865;BME280;40618;51.166;10.322;2023-04-27T00:13:26;97642.38;;;3.73;59.52
26865;BME280;40618;51.166;10.322;2023-04-27T00:15:52;97642.38;;;3.73;59.04
26865;BME280;40618;51.166;10.322;2023-04-27T00:18:18;97632.09;;;3.77;59.24
26865;BME280;40618;51.166;10.322;2023-04-27T00:20:44;97638.09;;;3.80;60.05
26865;BME280;40618;51.166;10.322;2023-04-27T00:23:09;97634.66;;;3.81;60.07
26865;BME280;40618;51.166;10.322;2023-04-27T00:25:35;97640.66;;;3.82;59.46
26865;BME280;40618;51.166;10.322;2023-04-27T00:28:01;97628.69;;;3.81;59.91
26865;BME280;40618;51.166;10.322;2023-04-27T00:30:27;97632.09;;;3.80;59.95
26865;BME280;40618;51.166;10.322;2023-04-27T00:32:53;97638.09;;;3.79;59.48
26865;BME280;40618;51.166;10.322;2023-04-27T00:35:18;97632.94;;;3.77;59.38
26865;BME280;40618;51.166;10.322;2023-04-27T00:37:44;97638.06;;;3.74;60.09
26865;BME280;40618;51.166;10.322;2023-04-27T00:40:10;97634.66;;;3.77;59.33
26865;BME280;40618;51.166;10.322;2023-04-27T00:42:36;97635.53;;;3.74;60.22
26865;BME280;40618;51.166;10.322;2023-04-27T00:45:02;97635.50;;;3.77;60.26
26865;BME280;40618;51.166;10.322;2023-04-27T00:47:29;97630.41;;;3.82;59.68
26865;BME280;40618;51.166;10.322;2023-04-27T00:49:55;97633.81;;;3.88;59.83
26865;BME280;40618;51.166;10.322;2023-04-27T00:52:21;97627.84;;;3.91;59.82
26865;BME280;40618;51.166;10.322;2023-04-27T00:54:49;97632.09;;;3.90;59.65
26865;BME280;40618;51.166;10.322;2023-04-27T00:57:16;97633.81;;;3.93;60.09
26865;BME280;40618;51.166;10.322;2023-04-27T00:59:42;97631.25;;;3.90;59.78
26865;BME280;40618;51.166;10.322;2023-04-27T01:02:10;97633.81;;;3.87;59.55
26865;BME280;40618;51.166;10.322;2023-04-27T01:04:37;97632.13;;;3.84;60.12
26865;BME280;40618;51.166;10.322;2023-04-27T01:07:03;97633.81;;;3.88;60.32
26865;BME280;40618;51.166;10.322;2023-04-27T01:09:29;97628.69;;;3.88;60.49
26865;BME280;40618;51.166;10.322;2023-04-27T01:11:54;97634.66;;;3.80;59.91
26865;BME280;40618;51.166;10.322;2023-04-27T01:14:22;97632.94;;;3.77;59.85
26865;BME280;40618;51.166;10.322;2023-04-27T01:16:47;97638.94;;;3.81;60.51
26865;BME280;40618;51.166;10.322;2023-04-27T01:19:14;97632.97;;;3.83;60.37
26865;BME280;40618;51.166;10.322;2023-04-27T01:21:39;97634.66;;;3.89;60.28
26865;BME280;40618;51.166;10.322;2023-04-27T01:24:06;97628.66;;;3.96;60.55
26865;BME280;40618;51.166;10.322;2023-04-27T01:26:32;97627.84;;;3.94;60.24
26865;BME280;40618;51.166;10.322;2023-04-27T01:28:58;97630.38;;;3.97;60.46
26865;BME280;40618;51.166;10.322;2023-04-27T01:31:24;97622.69;;;3.99;60.93
26865;BME280;40618;51.166;10.322;2023-04-27T01:33:50;97628.69;;;4.01;60.79
26865;BME280;40618;51.166;10.322;2023-04-27T01:36:15;97632.09;;;4.01;60.94
26865;BME280;40618;51.166;10.322;2023-04-27T01:38:41;97631.25;;;4.02;60.93
26865;BME280;40618;51.166;10.322;2023-04-27T01:41:08;97632.94;;;4.06;60.55
26865;BME280;40618;51.166;10.322;2023-04-27T01:43:34;97633.78;;;4.05;60.65
26865;BME280;40618;51.166;10.322;2023-04-27T01:46:10;97636.38;;;3.95;60.78
26865;BME280;40618;51.166;10.322;2023-04-27T01:48:38;97627.81;;;3.97;61.02
26865;BME280;40618;51.166;10.322;2023-04-27T01:51:04;97632.09;;;4.01;60.77
26865;BME280;40618;51.166;10.322;2023-04-27T01:53:30;97626.97;;;4.03;61.06
26865;BME280;40618;51.166;10.322;2023-04-27T01:55:57;97633.78;;;4.04;60.64
26865;BME280;40618;51.166;10.322;2023-04-27T01:58:26;97635.53;;;4.03;61.37
26865;BME280;40618;51.166;10.322;2023-04-27T02:00:52;97642.34;;;4.06;60.65
26865;BME280;40618;51.166;10.322;2023-04-27T02:03:17;97648.31;;;4.08;61.32
26865;BME280;40618;51.166;10.322;2023-04-27T02:05:43;97647.47;;;4.11;60.73
26865;BME280;40618;51.166;10.322;2023-04-27T02:08:09;97641.50;;;4.10;61.57
26865;BME280;40618;51.166;10.322;2023-04-27T02:10:34;97634.66;;;4.11;60.85
26865;BME280;40618;51.166;10.322;2023-04-27T02:13:01;97644.03;;;4.09;61.29
26865;BME280;40618;51.166;10.322;2023-04-27T02:15:26;97656.84;;;4.07;61.43
26865;BME280;40618;51.166;10.322;2023-04-27T02:17:52;97656.00;;;4.06;60.73
26865;BME280;40618;51.166;10.322;2023-04-27T02:20:18;97662.00;;;4.01;61.42
26865;BME280;40618;51.166;10.322;2023-04-27T02:22:43;97662.84;;;3.97;61.17
26865;BME280;40618;51.166;10.322;2023-04-27T02:25:10;97662.00;;;4.02;61.10
26865;BME280;40618;51.166;10.322;2023-04-27T02:27:37;97661.13;;;4.05;61.90
26865;BME280;40618;51.166;10.322;2023-04-27T02:30:10;97668.81;;;4.06;61.60
26865;BME280;40618;51.166;10.322;2023-04-27T02:32:36;97661.97;;;4.09;61.35
26865;BME280;40618;51.166;10.322;2023-04-27T02:35:02;97655.16;;;4.09;61.68
26865;BME280;40618;51.166;10.322;2023-04-27T02:37:29;97657.72;;;4.11;61.74
26865;BME280;40618;51.166;10.322;2023-04-27T02:39:55;97672.22;;;4.09;61.75
26865;BME280;40618;51.166;10.322;2023-04-27T02:42:21;97681.63;;;4.03;61.41
26865;BME280;40618;51.166;10.322;2023-04-27T02:44:46;97683.34;;;4.06;61.88
26865;BME280;40618;51.166;10.322;2023-04-27T02:47:12;97673.09;;;4.01;61.89
26865;BME280;40618;51.166;10.322;2023-04-27T02:49:38;97670.53;;;3.98;62.02
26865;BME280;40618;51.166;10.322;2023-04-27T02:52:04;97674.81;;;3.99;62.09
26865;BME280;40618;51.166;10.322;2023-04-27T02:54:30;97679.06;;;3.99;61.40
26865;BME280;40618;51.166;10.322;2023-04-27T02:56:56;97680.78;;;3.98;62.32
26865;BME280;40618;51.166;10.322;2023-04-27T02:59:22;97676.50;;;4.00;61.83
26865;BME280;40618;51.166;10.322;2023-04-27T03:01:47;97683.34;;;4.01;62.45
26865;BME280;40618;51.166;10.322;2023-04-27T03:04:13;97682.47;;;4.04;61.80
26865;BME280;40618;51.166;10.322;2023-04-27T03:06:42;97685.91;;;4.06;62.04
26865;BME280;40618;51.166;10.322;2023-04-27T03:09:08;97689.31;;;4.06;62.24
26865;BME280;40618;51.166;10.322;2023-04-27T03:11:35;97693.59;;;4.09;62.13
26865;BME280;40618;51.166;10.322;2023-04-27T03:14:02;97692.72;;;4.09;62.43
26865;BME280;40618;51.166;10.322;2023-04-27T03:16:30;97685.88;;;4.04;61.78
26865;BME280;40618;51.166;10.322;2023-04-27T03:18:56;97691.03;;;4.01;62.27
26865;BME280;40618;51.166;10.322;2023-04-27T03:21:22;97687.63;;;4.02;62.34
26865;BME280;40618;51.166;10.322;2023-04-27T03:23:47;97694.44;;;4.03;62.15
26865;BME280;40618;51.166;10.322;2023-04-27T03:26:13;97691.00;;;4.04;62.65
26865;BME280;40618;51.166;10.322;2023-04-27T03:28:39;97693.56;;;4.04;61.64
26865;BME280;40618;51.166;10.322;2023-04-27T03:31:09;97697.88;;;4.02;61.97
26865;BME280;40618;51.166;10.322;2023-04-27T03:33:36;97702.16;;;4.02;62.39
26865;BME280;40618;51.166;10.322;2023-04-27T03:36:03;97700.44;;;4.01;62.05
26865;BME280;40618;51.166;10.322;2023-04-27T03:38:31;97691.03;;;4.01;62.09
26865;BME280;40618;51.166;10.322;2023-04-27T03:40:57;97696.16;;;4.01;62.44
26865;BME280;40618;51.166;10.322;2023-04-27T03:43:23;97697.88;;;4.01;62.55
26865;BME280;40618;51.166;10.322;2023-04-27T03:45:49;97705.56;;;4.01;62.76
26865;BME280;40618;51.166;10.322;2023-04-27T03:48:16;97697.00;;;3.96;62.38
26865;BME280;40618;51.166;10.322;2023-04-27T03:50:42;97691.00;;;3.94;62.06
26865;BME280;40618;51.166;10.322;2023-04-27T03:53:08;97694.44;;;3.91;62.85
26865;BME280;40618;51.166;10.322;2023-04-27T03:55:42;97705.53;;;3.92;62.90
26865;BME280;40618;51.166;10.322;2023-04-27T03:58:09;97708.97;;;3.89;62.45
26865;BME280;40618;51.166;10.322;2023-04-27T04:00:35;97700.44;;;3.88;62.48
26865;BME280;40618;51.166;10.322;2023-04-27T04:03:03;97697.84;;;3.81;62.53
26865;BME280;40618;51.166;10.322;2023-04-27T04:05:29;97688.44;;;3.80;62.56
26865;BME280;40618;51.166;10.322;2023-04-27T04:07:56;97695.28;;;3.84;62.30
26865;BME280;40618;51.166;10.322;2023-04-27T04:10:21;97696.16;;;3.89;62.95
26865;BME280;40618;51.166;10.322;2023-04-27T04:12:47;97695.31;;;3.90;62.65
26865;BME280;40618;51.166;10.322;2023-04-27T04:15:13;97689.31;;;3.91;63.35
26865;BME280;40618;51.166;10.322;2023-04-27T04:17:39;97700.44;;;3.90;62.88
26865;BME280;40618;51.166;10.322;2023-04-27T04:20:05;97699.56;;;3.91;62.69
26865;BME280;40618;51.166;10.322;2023-04-27T04:22:32;97694.44;;;3.94;62.93
26865;BME280;40618;51.166;10.322;2023-04-27T04:24:58;97702.13;;;3.97;62.67
26865;BME280;40618;51.166;10.322;2023-04-27T04:27:24;97697.00;;;3.94;63.36
26865;BME280;40618;51.166;10.322;2023-04-27T04:29:49;97691.88;;;3.89;62.62
26865;BME280;40618;51.166;10.322;2023-04-27T04:32:15;97692.72;;;3.78;62.78
26865;BME280;40618;51.166;10.322;2023-04-27T04:34:43;97688.44;;;3.78;62.93
26865;BME280;40618;51.166;10.322;2023-04-27T04:37:13;97685.91;;;3.83;63.00
26865;BME280;40618;51.166;10.322;2023-04-27T04:39:39;97682.47;;;3.84;63.36
26865;BME280;40618;51.166;10.322;2023-04-27T04:42:04;97684.19;;;3.86;62.98
26865;BME280;40618;51.166;10.322;2023-04-27T04:44:30;97689.31;;;3.89;63.09
26865;BME280;40618;51.166;10.322;2023-04-27T04:46:55;97693.56;;;3.92;63.28
26865;BME280;40618;51.166;10.322;2023-04-27T04:49:21;97692.75;;;3.92;63.50
26865;BME280;40618;51.166;10.322;2023-04-27T04:51:47;97689.31;;;3.88;63.27
26865;BME280;40618;51.166;10.322;2023-04-27T04:54:12;97692.72;;;3.84;63.65
26865;BME280;40618;51.166;10.322;2023-04-27T04:56:38;97693.56;;;3.81;63.46
26865;BME280;40618;51.166;10.322;2023-04-27T04:59:04;97694.44;;;3.82;63.22
26865;BME280;40618;51.166;10.322;2023-04-27T05:01:29;97692.72;;;3.82;63.95
26865;BME280;40618;51.166;10.322;2023-04-27T05:03:55;97696.13;;;3.80;63.11
26865;BME280;40618;51.166;10.322;2023-04-27T05:06:20;97702.13;;;3.79;64.03
26865;BME280;40618;51.166;10.322;2023-04-27T05:08:46;97709.81;;;3.79;63.73
26865;BME280;40618;51.166;10.322;2023-04-27T05:11:12;97703.81;;;3.77;63.07
26865;BME280;40618;51.166;10.322;2023-04-27T05:13:37;97707.25;;;3.71;63.87
26865;BME280;40618;51.166;10.322;2023-04-27T05:16:04;97715.78;;;3.67;63.15
26865;BME280;40618;51.166;10.322;2023-04-27T05:18:31;97722.59;;;3.69;63.52
26865;BME280;40618;51.166;10.322;2023-04-27T05:20:57;97723.44;;;3.71;63.44
26865;BME280;40618;51.166;10.322;2023-04-27T05:23:22;97726.03;;;3.75;64.00
26865;BME280;40618;51.166;10.322;2023-04-27T05:25:48;97725.16;;;3.77;63.24
26865;BME280;40618;51.166;10.322;2023-04-27T05:28:14;97726.88;;;3.80;63.64
26865;BME280;40618;51.166;10.322;2023-04-27T05:30:40;97723.47;;;3.79;63.76
26865;BME280;40618;51.166;10.322;2023-04-27T05:33:06;97729.44;;;3.78;63.81
26865;BME280;40618;51.166;10.322;2023-04-27T05:35:32;97731.16;;;3.81;63.60
26865;BME280;40618;51.166;10.322;2023-04-27T05:37:58;97729.47;;;3.86;63.74
26865;BME280;40618;51.166;10.322;2023-04-27T05:40:24;97734.56;;;3.89;63.85
26865;BME280;40618;51.166;10.322;2023-04-27T05:42:51;97732.00;;;3.89;63.88
26865;BME280;40618;51.166;10.322;2023-04-27T05:45:16;97728.59;;;3.93;63.99
26865;BME280;40618;51.166;10.322;2023-04-27T05:47:42;97735.44;;;3.97;63.59
26865;BME280;40618;51.166;10.322;2023-04-27T05:50:08;97741.44;;;4.01;63.35
26865;BME280;40618;51.166;10.322;2023-04-27T05:52:34;97749.94;;;4.03;63.80
26865;BME280;40618;51.166;10.322;2023-04-27T05:55:00;97740.56;;;4.06;63.57
26865;BME280;40618;51.166;10.322;2023-04-27T05:57:26;97746.53;;;4.07;63.95
26865;BME280;40618;51.166;10.322;2023-04-27T05:59:52;97747.41;;;4.11;63.25
26865;BME280;40618;51.166;10.322;2023-04-27T06:02:18;97743.16;;;4.16;63.89
26865;BME280;40618;51.166;10.322;2023-04-27T06:04:45;97743.13;;;4.22;63.71
26865;BME280;40618;51.166;10.322;2023-04-27T06:07:12;97742.28;;;4.26;63.38
26865;BME280;40618;51.166;10.322;2023-04-27T06:09:39;97749.09;;;4.32;63.56
26865;BME280;40618;51.166;10.322;2023-04-27T06:12:06;97746.56;;;4.35;63.49
26865;BME280;40618;51.166;10.322;2023-04-27T06:14:34;97741.41;;;4.43;63.92
26865;BME280;40618;51.166;10.322;2023-04-27T06:17:01;97749.09;;;4.47;63.28
26865;BME280;40618;51.166;10.322;2023-04-27T06:19:27;97745.69;;;4.53;63.22
26865;BME280;40618;51.166;10.322;2023-04-27T06:21:54;97761.06;;;4.56;63.53
26865;BME280;40618;51.166;10.322;2023-04-27T06:24:20;97757.63;;;4.62;63.34
26865;BME280;40618;51.166;10.322;2023-04-27T06:26:48;97757.63;;;4.69;63.13
26865;BME280;40618;51.166;10.322;2023-04-27T06:29:13;97750.78;;;4.74;63.37
26865;BME280;40618;51.166;10.322;2023-04-27T06:31:39;97761.00;;;4.81;63.42
26865;BME280;40618;51.166;10.322;2023-04-27T06:34:05;97759.31;;;4.86;62.87
26865;BME280;40618;51.166;10.322;2023-04-27T06:36:31;97764.41;;;4.89;63.13
26865;BME280;40618;51.166;10.322;2023-04-27T06:38:57;97759.28;;;4.90;62.99
26865;BME280;40618;51.166;10.322;2023-04-27T06:41:24;97758.41;;;4.93;62.71
26865;BME280;40618;51.166;10.322;2023-04-27T06:43:51;97755.88;;;4.96;62.71
26865;BME280;40618;51.166;10.322;2023-04-27T06:46:18;97765.25;;;5.02;62.63
26865;BME280;40618;51.166;10.322;2023-04-27T06:48:44;97760.97;;;5.08;62.83
26865;BME280;40618;51.166;10.322;2023-04-27T06:51:11;97765.22;;;5.13;62.53
26865;BME280;40618;51.166;10.322;2023-04-27T06:53:37;97769.50;;;5.17;62.62
26865;BME280;40618;51.166;10.322;2023-04-27T06:56:04;97763.47;;;5.21;62.60
26865;BME280;40618;51.166;10.322;2023-04-27T06:58:31;97763.47;;;5.24;62.52
26865;BME280;40618;51.166;10.322;2023-04-27T07:00:56;97757.44;;;5.30;62.39
26865;BME280;40618;51.166;10.322;2023-04-27T07:03:22;97754.84;;;5.33;62.37
26865;BME280;40618;51.166;10.322;2023-04-27T07:05:48;97766.81;;;5.37;62.16
26865;BME280;40618;51.166;10.322;2023-04-27T07:08:15;97762.50;;;5.43;62.57
26865;BME280;40618;51.166;10.322;2023-04-27T07:10:41;97765.06;;;5.50;62.29
26865;BME280;40618;51.166;10.322;2023-04-27T07:13:06;97770.19;;;5.51;62.16
26865;BME280;40618;51.166;10.322;2023-04-27T07:15:32;97771.06;;;5.47;62.44
26865;BME280;40618;51.166;10.322;2023-04-27T07:17:57;97767.63;;;5.53;62.18
26865;BME280;40618;51.166;10.322;2023-04-27T07:20:23;97773.59;;;5.58;62.40
26865;BME280;40618;51.166;10.322;2023-04-27T07:22:49;97774.44;;;5.63;62.32
26865;BME280;40618;51.166;10.322;2023-04-27T07:25:15;97774.41;;;5.66;61.87
26865;BME280;40618;51.166;10.322;2023-04-27T07:27:41;97768.38;;;5.72;61.77
26865;BME280;40618;51.166;10.322;2023-04-27T07:30:07;97773.50;;;5.73;61.77
26865;BME280;40618;51.166;10.322;2023-04-27T07:32:41;97779.47;;;5.79;61.88
26865;BME280;40618;51.166;10.322;2023-04-27T07:35:07;97782.00;;;5.82;61.77
26865;BME280;40618;51.166;10.322;2023-04-27T07:37:36;97773.47;;;5.81;61.77
26865;BME280;40618;51.166;10.322;2023-04-27T07:40:03;97776.00;;;5.86;61.45
26865;BME280;40618;51.166;10.322;2023-04-27T07:42:43;97782.81;;;5.99;61.65
26865;BME280;40618;51.166;10.322;2023-04-27T07:45:10;97777.56;;;6.12;61.52
26865;BME280;40618;51.166;10.322;2023-04-27T07:47:37;97774.06;;;6.22;61.28
26865;BME280;40618;51.166;10.322;2023-04-27T07:50:05;97780.00;;;6.29;61.89
26865;BME280;40618;51.166;10.322;2023-04-27T07:52:31;97785.09;;;6.36;61.28
26865;BME280;40618;51.166;10.322;2023-04-27T07:54:57;97793.66;;;6.41;61.21
26865;BME280;40618;51.166;10.322;2023-04-27T07:57:23;97786.75;;;6.45;61.10
26865;BME280;40618;51.166;10.322;2023-04-27T07:59:48;97789.31;;;6.48;60.92
26865;BME280;40618;51.166;10.322;2023-04-27T08:02:14;97784.97;;;6.55;60.98
26865;BME280;40618;51.166;10.322;2023-04-27T08:04:40;97789.16;;;6.64;61.02
26865;BME280;40618;51.166;10.322;2023-04-27T08:07:05;97780.50;;;6.71;61.03
26865;BME280;40618;51.166;10.322;2023-04-27T08:09:31;97788.16;;;6.78;60.37
26865;BME280;40618;51.166;10.322;2023-04-27T08:11:57;97785.63;;;6.77;60.44
26865;BME280;40618;51.166;10.322;2023-04-27T08:14:22;97784.75;;;6.75;60.23
26865;BME280;40618;51.166;10.322;2023-04-27T08:16:48;97792.47;;;6.75;60.43
26865;BME280;40618;51.166;10.322;2023-04-27T08:19:15;97796.78;;;6.74;60.65
26865;BME280;40618;51.166;10.322;2023-04-27T08:21:42;97793.28;;;6.82;60.05
26865;BME280;40618;51.166;10.322;2023-04-27T08:24:08;97788.06;;;6.89;60.05
26865;BME280;40618;51.166;10.322;2023-04-27T08:26:33;97793.16;;;6.94;59.97
26865;BME280;40618;51.166;10.322;2023-04-27T08:29:00;97789.72;;;6.95;59.78
26865;BME280;40618;51.166;10.322;2023-04-27T08:31:26;97780.31;;;6.92;59.83
26865;BME280;40618;51.166;10.322;2023-04-27T08:33:52;97784.69;;;6.83;59.76
26865;BME280;40618;51.166;10.322;2023-04-27T08:36:20;97773.56;;;6.79;59.47
26865;BME280;40618;51.166;10.322;2023-04-27T08:38:49;97776.91;;;6.92;59.44
26865;BME280;40618;51.166;10.322;2023-04-27T08:41:22;97777.69;;;6.99;59.76
26865;BME280;40618;51.166;10.322;2023-04-27T08:43:49;97766.47;;;7.04;59.56
26865;BME280;40618;51.166;10.322;2023-04-27T08:46:20;97764.66;;;7.13;59.10
26865;BME280;40618;51.166;10.322;2023-04-27T08:48:48;97755.94;;;7.23;59.53
26865;BME280;40618;51.166;10.322;2023-04-27T08:51:15;97761.97;;;7.23;58.96
26865;BME280;40618;51.166;10.322;2023-04-27T08:53:50;97760.19;;;7.25;59.17
26865;BME280;40618;51.166;10.322;2023-04-27T08:56:21;97764.59;;;7.17;58.83
26865;BME280;40618;51.166;10.322;2023-04-27T08:58:52;97759.53;;;7.09;59.07
26865;BME280;40618;51.166;10.322;2023-04-27T09:01:19;97762.13;;;7.09;58.30
26865;BME280;40618;51.166;10.322;2023-04-27T09:03:46;97766.38;;;7.10;58.44
26865;BME280;40618;51.166;10.322;2023-04-27T09:06:13;97763.72;;;7.20;58.21
26865;BME280;40618;51.166;10.322;2023-04-27T09:08:45;97763.66;;;7.26;58.24
26865;BME280;40618;51.166;10.322;2023-04-27T09:11:12;97763.53;;;7.34;57.73
26865;BME280;40618;51.166;10.322;2023-04-27T09:13:40;97760.88;;;7.41;57.91
26865;BME280;40618;51.166;10.322;2023-04-27T09:16:06;97762.50;;;7.49;57.98
26865;BME280;40618;51.166;10.322;2023-04-27T09:18:35;97759.88;;;7.53;58.08
26865;BME280;40618;51.166;10.322;2023-04-27T09:21:02;97770.06;;;7.61;58.37
26865;BME280;40618;51.166;10.322;2023-04-27T09:23:30;97764.03;;;7.63;58.25
26865;BME280;40618;51.166;10.322;2023-04-27T09:26:02;97766.66;;;7.59;58.53
26865;BME280;40618;51.166;10.322;2023-04-27T09:28:32;97767.41;;;7.67;58.59
26865;BME280;40618;51.166;10.322;2023-04-27T09:31:01;97761.91;;;7.92;58.51
26865;BME280;40618;51.166;10.322;2023-04-27T09:33:28;97759.91;;;8.12;58.84
26865;BME280;40618;51.166;10.322;2023-04-27T09:36:00;97753.59;;;8.30;58.52
26865;BME280;40618;51.166;10.322;2023-04-27T09:38:28;97747.44;;;8.38;58.35
26865;BME280;40618;51.166;10.322;2023-04-27T09:40:56;97755.16;;;8.41;57.69
26865;BME280;40618;51.166;10.322;2023-04-27T09:43:22;97755.94;;;8.46;57.74
26865;BME280;40618;51.166;10.322;2023-04-27T09:45:50;97752.53;;;8.42;57.60
26865;BME280;40618;51.166;10.322;2023-04-27T09:48:16;97756.84;;;8.43;58.00
26865;BME280;40618;51.166;10.322;2023-04-27T09:50:43;97750.91;;;8.38;57.51
26865;BME280;40618;51.166;10.322;2023-04-27T09:53:23;97757.91;;;8.30;58.30
26865;BME280;40618;51.166;10.322;2023-04-27T10:02:04;97758.50;;;8.46;57.92
26865;BME280;40618;51.166;10.322;2023-04-27T10:07:12;97764.59;;;8.40;57.21
26865;BME280;40618;51.166;10.322;2023-04-27T10:09:47;97754.41;;;8.34;57.64
26865;BME280;40618;51.166;10.322;2023-04-27T10:12:16;97757.94;;;8.28;57.92
26865;BME280;40618;51.166;10.322;2023-04-27T10:14:59;97754.38;;;8.36;57.24
26865;BME280;40618;51.166;10.322;2023-04-27T10:17:49;97749.09;;;8.43;57.20
26865;BME280;40618;51.166;10.322;2023-04-27T10:20:27;97746.25;;;8.60;57.67
26865;BME280;40618;51.166;10.322;2023-04-27T10:22:54;97747.66;;;8.77;57.29
26865;BME280;40618;51.166;10.322;2023-04-27T10:25:37;97745.59;;;8.96;57.33
26865;BME280;40618;51.166;10.322;2023-04-27T10:28:07;97748.28;;;8.90;56.81
26865;BME280;40618;51.166;10.322;2023-04-27T10:30:44;97744.28;;;8.73;56.87
26865;BME280;40618;51.166;10.322;2023-04-27T10:33:15;97740.88;;;8.71;56.80
26865;BME280;40618;51.166;10.322;2023-04-27T10:35:44;97745.00;;;8.81;57.26
26865;BME280;40618;51.166;10.322;2023-04-27T10:38:19;97731.56;;;9.09;57.47
26865;BME280;40618;51.166;10.322;2023-04-27T10:40:58;97735.63;;;9.23;56.87
26865;BME280;40618;51.166;10.322;2023-04-27T10:43:31;97735.59;;;9.24;56.47
26865;BME280;40618;51.166;10.322;2023-04-27T10:46:11;97736.63;;;9.14;56.21
26865;BME280;40618;51.166;10.322;2023-04-27T10:48:39;97740.25;;;9.05;56.08
26865;BME280;40618;51.166;10.322;2023-04-27T10:51:09;97730.59;;;9.15;56.00
26865;BME280;40618;51.166;10.322;2023-04-27T10:53:39;97738.97;;;9.26;56.17
26865;BME280;40618;51.166;10.322;2023-04-27T10:56:05;97730.03;;;9.43;55.83
26865;BME280;40618;51.166;10.322;2023-04-27T10:58:34;97736.88;;;9.45;54.97
26865;BME280;40618;51.166;10.322;2023-04-27T11:01:02;97731.88;;;9.38;55.16
26865;BME280;40618;51.166;10.322;2023-04-27T11:03:28;97736.34;;;9.29;54.78
26865;BME280;40618;51.166;10.322;2023-04-27T11:06:03;97733.91;;;9.22;54.67
26865;BME280;40618;51.166;10.322;2023-04-27T11:08:30;97723.59;;;9.20;54.98
26865;BME280;40618;51.166;10.322;2023-04-27T11:10:56;97727.09;;;9.18;54.48
26865;BME280;40618;51.166;10.322;2023-04-27T11:13:23;97722.63;;;9.26;55.13
26865;BME280;40618;51.166;10.322;2023-04-27T11:18:21;97738.31;;;9.59;54.44
26865;BME280;40618;51.166;10.322;2023-04-27T11:20:52;97725.31;;;9.62;54.29
26865;BME280;40618;51.166;10.322;2023-04-27T11:23:30;97726.19;;;9.62;54.83
26865;BME280;40618;51.166;10.322;2023-04-27T11:26:18;97730.84;;;9.86;54.04
26865;BME280;40618;51.166;10.322;2023-04-27T11:29:00;97723.78;;;9.91;53.76
26865;BME280;40618;51.166;10.322;2023-04-27T11:31:46;97719.00;;;9.75;53.93
26865;BME280;40618;51.166;10.322;2023-04-27T11:34:23;97723.63;;;9.61;53.91
26865;BME280;40618;51.166;10.322;2023-04-27T11:37:01;97724.31;;;9.68;54.63
26865;BME280;40618;51.166;10.322;2023-04-27T11:39:33;97719.91;;;9.73;53.62
26865;BME280;40618;51.166;10.322;2023-04-27T11:44:50;97727.69;;;9.71;53.15
26865;BME280;40618;51.166;10.322;2023-04-27T11:47:19;97729.31;;;9.75;53.19
26865;BME280;40618;51.166;10.322;2023-04-27T11:49:50;97716.56;;;9.69;53.03
26865;BME280;40618;51.166;10.322;2023-04-27T11:52:17;97714.25;;;9.55;52.95
26865;BME280;40618;51.166;10.322;2023-04-27T11:54:47;97715.13;;;9.56;52.87
26865;BME280;40618;51.166;10.322;2023-04-27T11:57:14;97722.78;;;9.59;52.74
26865;BME280;40618;51.166;10.322;2023-04-27T11:59:40;97717.56;;;9.62;53.74
26865;BME280;40618;51.166;10.322;2023-04-27T12:02:06;97714.97;;;9.62;52.59
26865;BME280;40618;51.166;10.322;2023-04-27T12:04:33;97714.81;;;9.70;53.18
26865;BME280;40618;51.166;10.322;2023-04-27T12:07:00;97708.63;;;9.75;53.34
26865;BME280;40618;51.166;10.322;2023-04-27T12:09:26;97710.16;;;9.84;52.55
26865;BME280;40618;51.166;10.322;2023-04-27T12:11:53;97705.81;;;9.86;52.89
26865;BME280;40618;51.166;10.322;2023-04-27T12:14:19;97701.38;;;9.91;52.69
26865;BME280;40618;51.166;10.322;2023-04-27T12:16:44;97701.28;;;9.96;52.62
26865;BME280;40618;51.166;10.322;2023-04-27T12:19:10;97699.56;;;9.95;52.68
26865;BME280;40618;51.166;10.322;2023-04-27T12:21:36;97699.47;;;9.99;52.63
26865;BME280;40618;51.166;10.322;2023-04-27T12:24:01;97696.72;;;10.06;52.34
26865;BME280;40618;51.166;10.322;2023-04-27T12:26:27;97697.50;;;10.09;52.64
26865;BME280;40618;51.166;10.322;2023-04-27T12:28:53;97690.44;;;10.16;52.21
26865;BME280;40618;51.166;10.322;2023-04-27T12:31:19;97688.47;;;10.26;52.47
26865;BME280;40618;51.166;10.322;2023-04-27T12:33:48;97684.81;;;10.36;52.91
26865;BME280;40618;51.166;10.322;2023-04-27T12:36:15;97680.25;;;10.46;52.72
26865;BME280;40618;51.166;10.322;2023-04-27T12:38:41;97675.56;;;10.59;52.37
26865;BME280;40618;51.166;10.322;2023-04-27T12:41:07;97670.16;;;10.68;52.36
26865;BME280;40618;51.166;10.322;2023-04-27T12:43:33;97666.63;;;10.71;52.50
26865;BME280;40618;51.166;10.322;2023-04-27T12:46:02;97666.69;;;10.69;52.04
26865;BME280;40618;51.166;10.322;2023-04-27T12:48:28;97666.84;;;10.63;51.95
26865;BME280;40618;51.166;10.322;2023-04-27T12:50:53;97666.03;;;10.61;51.93
26865;BME280;40618;51.166;10.322;2023-04-27T12:53:19;97676.41;;;10.61;51.95
26865;BME280;40618;51.166;10.322;2023-04-27T12:55:45;97676.50;;;10.56;51.88
26865;BME280;40618;51.166;10.322;2023-04-27T12:58:11;97685.34;;;10.49;51.45
26865;BME280;40618;51.166;10.322;2023-04-27T13:00:37;97680.81;;;10.57;51.67
26865;BME280;40618;51.166;10.322;2023-04-27T13:03:02;97675.50;;;10.62;51.89
26865;BME280;40618;51.166;10.322;2023-04-27T13:05:29;97675.34;;;10.68;51.67
26865;BME280;40618;51.166;10.322;2023-04-27T13:07:55;97671.00;;;10.69;52.09
26865;BME280;40618;51.166;10.322;2023-04-27T13:10:22;97673.72;;;10.64;52.02
26865;BME280;40618;51.166;10.322;2023-04-27T13:12:48;97665.75;;;10.72;52.26
26865;BME280;40618;51.166;10.322;2023-04-27T13:15:14;97663.81;;;10.80;51.78